createdAt,value
2023-05-12T00:02:24.491Z,14.30
2023-05-12T00:04:52.027Z,15.68
2023-05-12T00:07:19.083Z,14.30
2023-05-12T00:09:46.086Z,16.65
2023-05-12T00:12:13.305Z,12.05
2023-05-12T00:14:44.473Z,15.02
2023-05-12T00:17:11.409Z,13.52
2023-05-12T00:19:43.983Z,13.57
2023-05-12T00:22:11.555Z,13.32
2023-05-12T00:24:39.809Z,15.70
2023-05-12T00:27:06.883Z,16.80
2023-05-12T00:29:34.571Z,14.82
2023-05-12T00:32:03.797Z,14.70
2023-05-12T00:34:30.952Z,17.15
2023-05-12T00:36:57.954Z,12.75
2023-05-12T00:39:27.564Z,14.77
2023-05-12T00:41:56.248Z,15.13
2023-05-12T00:44:23.467Z,17.95
2023-05-12T00:46:51.302Z,13.40
2023-05-12T00:49:20.648Z,13.38
2023-05-12T00:51:47.816Z,13.63
2023-05-12T00:54:14.830Z,13.55
2023-05-12T00:56:42.368Z,14.05
2023-05-12T00:59:09.837Z,13.65
2023-05-12T01:01:40.653Z,17.13
2023-05-12T01:04:08.190Z,13.77
2023-05-12T01:06:42.343Z,12.88
2023-05-12T01:09:10.362Z,15.90
2023-05-12T01:11:37.639Z,18.38
2023-05-12T01:14:05.465Z,18.13
2023-05-12T01:16:37.520Z,13.60
2023-05-12T01:19:07.839Z,15.27
2023-05-12T01:21:37.119Z,12.88
2023-05-12T01:24:09.167Z,15.38
2023-05-12T01:26:38.766Z,15.40
2023-05-12T01:29:07.340Z,15.90
2023-05-12T01:31:34.806Z,18.60
2023-05-12T01:34:01.997Z,15.75
2023-05-12T01:36:29.817Z,15.68
2023-05-12T01:38:56.974Z,12.65
2023-05-12T01:41:23.920Z,14.88
2023-05-12T01:43:52.385Z,15.20
2023-05-12T01:46:19.394Z,14.63
2023-05-12T01:48:46.660Z,15.93
2023-05-12T01:51:13.720Z,15.52
2023-05-12T01:53:40.695Z,16.63
2023-05-12T01:56:07.839Z,11.80
2023-05-12T01:58:35.760Z,19.25
2023-05-12T02:01:04.590Z,13.05
2023-05-12T02:03:31.673Z,13.10
2023-05-12T02:05:58.935Z,13.98
2023-05-12T02:08:26.001Z,12.77
2023-05-12T02:11:05.082Z,11.88
2023-05-12T02:13:32.392Z,12.48
2023-05-12T02:15:59.524Z,16.25
2023-05-12T02:18:28.286Z,12.77
2023-05-12T02:20:55.645Z,15.30
2023-05-12T02:23:23.024Z,14.52
2023-05-12T02:25:50.088Z,14.25
2023-05-12T02:28:17.472Z,23.45
2023-05-12T02:30:46.410Z,13.93
2023-05-12T02:33:13.464Z,15.18
2023-05-12T02:35:41.792Z,13.70
2023-05-12T02:38:09.904Z,16.05
2023-05-12T02:40:36.856Z,21.88
2023-05-12T02:43:04.079Z,15.55
2023-05-12T02:45:31.115Z,14.95
2023-05-12T02:47:58.301Z,17.00
2023-05-12T02:50:26.484Z,13.93
2023-05-12T02:52:54.944Z,14.05
2023-05-12T02:55:22.003Z,16.65
2023-05-12T02:57:48.971Z,15.70
2023-05-12T03:00:16.526Z,16.88
2023-05-12T03:02:43.760Z,12.65
2023-05-12T03:05:10.740Z,18.83
2023-05-12T03:07:37.654Z,13.82
2023-05-12T03:10:07.199Z,17.77
2023-05-12T03:12:34.201Z,16.90
2023-05-12T03:15:01.176Z,13.57
2023-05-12T03:17:31.575Z,19.00
2023-05-12T03:19:58.591Z,18.17
2023-05-12T03:22:25.772Z,12.32
2023-05-12T03:24:52.926Z,13.50
2023-05-12T03:27:22.081Z,14.13
2023-05-12T03:29:49.077Z,16.48
2023-05-12T03:32:17.039Z,13.13
2023-05-12T03:34:44.293Z,17.55
2023-05-12T03:37:12.714Z,17.73
2023-05-12T03:39:39.798Z,13.40
2023-05-12T03:42:07.096Z,18.65
2023-05-12T03:44:35.637Z,18.45
2023-05-12T03:47:02.804Z,18.30
2023-05-12T03:49:29.856Z,14.25
2023-05-12T03:51:56.807Z,15.27
2023-05-12T03:54:24.074Z,15.63
2023-05-12T03:56:53.007Z,15.43
2023-05-12T03:59:19.961Z,16.55
2023-05-12T04:01:48.272Z,14.57
2023-05-12T04:04:15.345Z,14.27
2023-05-12T04:06:42.654Z,15.35
2023-05-12T04:09:10.194Z,15.23
2023-05-12T04:11:38.057Z,15.52
2023-05-12T04:14:04.969Z,18.35
2023-05-12T04:16:31.994Z,19.58
2023-05-12T04:19:00.449Z,15.80
2023-05-12T04:21:28.807Z,18.13
2023-05-12T04:23:55.753Z,14.23
2023-05-12T04:26:27.360Z,13.05
2023-05-12T04:28:54.406Z,14.52
2023-05-12T04:31:21.621Z,16.27
2023-05-12T04:33:48.675Z,13.20
2023-05-12T04:36:17.044Z,17.52
2023-05-12T04:38:44.236Z,15.32
2023-05-12T04:41:11.228Z,16.75
2023-05-12T04:46:08.190Z,18.40
2023-05-12T04:48:35.194Z,14.38
2023-05-12T04:51:02.508Z,16.60
2023-05-12T04:53:34.666Z,15.43
2023-05-12T04:56:02.200Z,14.20
2023-05-12T04:58:32.633Z,13.30
2023-05-12T05:01:00.153Z,13.75
2023-05-12T05:03:27.512Z,13.80
2023-05-12T05:05:54.956Z,11.05
2023-05-12T05:08:22.140Z,16.27
2023-05-12T05:10:50.875Z,14.88
2023-05-12T05:13:17.832Z,13.57
2023-05-12T05:15:51.432Z,11.82
2023-05-12T05:18:19.802Z,11.80
2023-05-12T05:23:17.569Z,13.27
2023-05-12T05:25:44.592Z,15.63
2023-05-12T05:28:13.025Z,13.00
2023-05-12T05:30:40.537Z,12.15
2023-05-12T05:33:08.144Z,14.15
2023-05-12T05:35:37.578Z,12.57
2023-05-12T05:38:04.570Z,12.77
2023-05-12T05:40:41.343Z,13.43
2023-05-12T05:43:19.646Z,8.98
2023-05-12T05:45:49.324Z,11.98
2023-05-12T05:48:16.656Z,8.48
2023-05-12T05:50:43.948Z,13.20
2023-05-12T05:53:11.113Z,11.73
2023-05-12T05:55:38.223Z,9.82
2023-05-12T05:58:08.624Z,10.45
2023-05-12T06:00:37.405Z,13.70
2023-05-12T06:03:04.874Z,14.90
2023-05-12T06:05:32.020Z,11.43
2023-05-12T06:07:58.928Z,11.95
2023-05-12T06:10:26.435Z,10.02
2023-05-12T06:12:55.290Z,16.23
2023-05-12T06:15:22.539Z,11.38
2023-05-12T06:17:51.425Z,11.80
2023-05-12T06:20:23.288Z,9.93
2023-05-12T06:22:50.349Z,7.28
2023-05-12T06:25:18.294Z,15.00
2023-05-12T06:27:45.424Z,10.15
2023-05-12T06:30:15.862Z,18.95
2023-05-12T06:32:43.287Z,11.00
2023-05-12T06:35:11.773Z,6.28
2023-05-12T06:37:38.724Z,7.57
2023-05-12T06:40:09.178Z,6.43
2023-05-12T06:42:36.398Z,7.63
2023-05-12T06:45:11.362Z,6.40
2023-05-12T06:47:38.588Z,7.03
2023-05-12T06:50:07.169Z,6.88
2023-05-12T06:52:36.193Z,11.68
2023-05-12T06:55:03.304Z,8.95
2023-05-12T06:57:30.494Z,7.78
2023-05-12T06:59:57.441Z,5.22
2023-05-12T07:02:24.439Z,5.00
2023-05-12T07:04:51.426Z,7.72
2023-05-12T07:07:18.902Z,10.35
2023-05-12T07:09:47.222Z,4.95
2023-05-12T07:12:14.213Z,4.30
2023-05-12T07:14:41.276Z,6.30
2023-05-12T07:17:08.257Z,5.70
2023-05-12T07:19:35.609Z,5.38
2023-05-12T07:22:02.755Z,4.75
2023-05-12T07:24:29.761Z,9.23
2023-05-12T07:26:58.287Z,5.10
2023-05-12T07:29:25.213Z,6.18
2023-05-12T07:31:52.241Z,6.60
2023-05-12T07:34:19.168Z,6.05
2023-05-12T07:36:46.114Z,5.90
2023-05-12T07:39:15.070Z,9.98
2023-05-12T07:41:42.133Z,6.00
2023-05-12T07:44:10.699Z,3.00
2023-05-12T07:46:37.828Z,13.32
2023-05-12T07:49:04.881Z,6.18
2023-05-12T07:51:31.801Z,4.35
2023-05-12T07:53:58.904Z,4.15
2023-05-12T07:56:25.832Z,6.05
2023-05-12T07:58:52.807Z,5.15
2023-05-12T08:01:21.458Z,6.38
2023-05-12T08:03:48.663Z,10.80
2023-05-12T08:06:15.703Z,9.10
2023-05-12T08:08:42.642Z,6.85
2023-05-12T08:11:10.084Z,4.97
2023-05-12T08:13:37.072Z,5.60
2023-05-12T08:16:04.222Z,5.07
2023-05-12T08:18:32.966Z,7.18
2023-05-12T08:20:59.882Z,8.98
2023-05-12T08:23:27.161Z,2.95
2023-05-12T08:25:54.076Z,4.57
2023-05-12T08:28:21.247Z,10.23
2023-05-12T08:30:48.444Z,13.13
2023-05-12T08:33:15.492Z,6.95
2023-05-12T08:35:43.790Z,5.53
2023-05-12T08:38:10.789Z,5.10
2023-05-12T08:40:44.626Z,5.80
2023-05-12T08:43:22.634Z,5.45
2023-05-12T08:45:50.046Z,7.40
2023-05-12T08:48:19.993Z,7.00
2023-05-12T08:50:51.431Z,9.63
2023-05-12T08:53:21.144Z,5.78
2023-05-12T08:57:08.116Z,8.43
2023-05-12T08:58:41.689Z,4.45
2023-05-12T09:01:12.073Z,4.68
2023-05-12T09:03:39.372Z,7.88
2023-05-12T09:06:09.062Z,3.45
2023-05-12T09:08:37.539Z,15.55
2023-05-12T09:11:05.473Z,6.50
2023-05-12T09:30:02.279Z,7.55
2023-05-12T09:32:33.294Z,5.20
2023-05-12T09:35:03.973Z,6.07
2023-05-12T09:37:32.459Z,4.35
2023-05-12T09:40:00.675Z,4.93
2023-05-12T09:42:30.761Z,6.38
2023-05-12T09:45:00.084Z,3.47
2023-05-12T09:47:37.972Z,3.55
2023-05-12T09:50:06.940Z,4.18
2023-05-12T09:52:37.170Z,6.20
2023-05-12T09:55:12.855Z,11.30
2023-05-12T09:57:41.796Z,3.55
2023-05-12T10:00:24.931Z,3.28
2023-05-12T10:03:00.682Z,6.68
2023-05-12T10:05:28.727Z,8.13
2023-05-12T10:07:59.810Z,5.45
2023-05-12T10:10:28.579Z,5.20
2023-05-12T10:12:59.088Z,4.78
2023-05-12T10:15:27.361Z,6.95
2023-05-12T10:17:56.660Z,3.22
2023-05-12T10:20:28.364Z,3.13
2023-05-12T10:23:00.185Z,6.07
2023-05-12T10:25:28.203Z,4.55
2023-05-12T10:27:56.265Z,4.20
2023-05-12T10:30:23.967Z,8.80
2023-05-12T10:32:51.101Z,3.75
2023-05-12T10:35:18.950Z,3.22
2023-05-12T10:37:48.246Z,3.05
2023-05-12T10:40:23.591Z,3.72
2023-05-12T10:42:51.726Z,2.97
2023-05-12T10:45:20.389Z,6.55
2023-05-12T10:47:48.131Z,4.05
2023-05-12T10:50:15.292Z,3.17
2023-05-12T10:52:54.952Z,9.10
2023-05-12T10:55:31.731Z,14.32
2023-05-12T10:58:05.344Z,8.18
2023-05-12T11:00:43.066Z,4.03
2023-05-12T11:03:17.381Z,7.22
2023-05-12T11:05:46.925Z,9.43
2023-05-12T11:08:17.551Z,16.90
2023-05-12T11:10:47.023Z,6.35
2023-05-12T11:13:14.295Z,8.02
2023-05-12T11:15:44.396Z,7.75
2023-05-12T11:18:12.712Z,4.30
2023-05-12T11:20:39.783Z,5.43
2023-05-12T11:23:06.912Z,6.28
2023-05-12T11:25:36.088Z,9.23
2023-05-12T11:28:03.474Z,19.25
2023-05-12T11:30:30.562Z,4.30
2023-05-12T11:33:01.504Z,2.65
2023-05-12T11:35:31.171Z,4.72
2023-05-12T11:37:58.266Z,5.50
2023-05-12T11:40:25.631Z,6.38
2023-05-12T11:42:55.789Z,3.75
2023-05-12T11:45:25.029Z,3.60
2023-05-12T11:47:53.437Z,3.67
2023-05-12T11:50:24.538Z,5.18
2023-05-12T11:52:52.348Z,7.32
2023-05-12T11:55:24.139Z,7.25
2023-05-12T11:58:00.527Z,7.03
2023-05-12T12:00:29.392Z,27.73
2023-05-12T12:03:09.382Z,22.85
2023-05-12T12:05:36.735Z,11.15
2023-05-12T12:08:08.828Z,3.22
2023-05-12T12:10:36.567Z,6.10
2023-05-12T12:13:06.380Z,6.32
2023-05-12T12:15:33.486Z,6.10
2023-05-12T12:18:00.577Z,4.88
2023-05-12T12:20:28.002Z,4.10
2023-05-12T12:22:55.165Z,8.32
2023-05-12T12:25:22.742Z,4.57
2023-05-12T12:27:49.956Z,4.75
2023-05-12T12:30:21.343Z,4.65
2023-05-12T12:32:49.001Z,12.85
2023-05-12T12:35:16.070Z,3.67
2023-05-12T12:37:43.068Z,7.10
2023-05-12T12:40:11.590Z,4.35
2023-05-12T12:42:40.644Z,3.28
2023-05-12T12:45:08.676Z,4.53
2023-05-12T12:47:37.992Z,7.75
2023-05-12T12:50:06.192Z,2.55
2023-05-12T12:52:33.222Z,6.07
2023-05-12T12:55:00.149Z,7.75
2023-05-12T12:57:27.607Z,5.57
2023-05-12T12:59:55.344Z,2.85
2023-05-12T13:02:22.666Z,3.25
2023-05-12T13:04:51.270Z,9.00
2023-05-12T13:07:18.243Z,7.47
2023-05-12T13:09:45.157Z,6.07
2023-05-12T13:12:12.607Z,3.80
2023-05-12T13:14:39.764Z,5.85
2023-05-12T13:17:06.881Z,7.00
2023-05-12T13:19:35.893Z,3.65
2023-05-12T13:22:05.843Z,2.95
2023-05-12T13:24:33.029Z,4.93
2023-05-12T13:27:00.143Z,2.30
2023-05-12T13:29:27.147Z,7.07
2023-05-12T13:31:57.200Z,2.88
2023-05-12T13:34:24.122Z,7.68
2023-05-12T13:36:51.038Z,2.42
2023-05-12T13:39:19.762Z,5.20
2023-05-12T13:41:46.870Z,8.50
2023-05-12T13:44:13.853Z,7.80
2023-05-12T13:46:41.039Z,4.28
2023-05-12T13:49:07.999Z,1.92
2023-05-12T13:51:34.933Z,4.45
2023-05-12T13:54:02.021Z,12.45
2023-05-12T13:56:30.350Z,5.32
2023-05-12T13:58:57.481Z,8.32
2023-05-12T14:01:24.440Z,3.97
2023-05-12T14:03:51.531Z,5.78
2023-05-12T14:06:18.530Z,9.13
2023-05-12T14:08:45.753Z,2.75
2023-05-12T14:11:13.373Z,3.67
2023-05-12T14:13:41.714Z,21.05
2023-05-12T14:16:09.032Z,3.17
2023-05-12T14:18:36.129Z,6.55
2023-05-12T14:21:03.164Z,14.13
2023-05-12T14:23:30.168Z,35.13
2023-05-12T14:25:57.195Z,28.73
2023-05-12T14:28:24.533Z,15.38
2023-05-12T14:30:55.705Z,9.02
2023-05-12T14:33:25.579Z,3.10
2023-05-12T14:36:05.878Z,5.38
2023-05-12T14:38:34.655Z,6.00
2023-05-12T14:41:04.108Z,7.70
2023-05-12T14:43:33.853Z,2.70
2023-05-12T14:46:02.555Z,7.63
2023-05-12T14:48:29.616Z,5.32
2023-05-12T14:50:56.915Z,5.43
2023-05-12T14:53:24.660Z,10.57
2023-05-12T14:55:52.151Z,7.93
2023-05-12T14:58:21.729Z,4.05
2023-05-12T15:00:51.049Z,5.38
2023-05-12T15:03:21.291Z,3.58
2023-05-12T15:08:21.623Z,3.78
2023-05-12T15:10:49.054Z,9.77
2023-05-12T15:13:18.274Z,6.60
2023-05-12T15:15:46.662Z,5.15
2023-05-12T15:18:13.628Z,5.75
2023-05-12T15:20:42.179Z,2.85
2023-05-12T15:23:09.180Z,17.10
2023-05-12T15:25:38.608Z,5.80
2023-05-12T15:28:05.610Z,2.67
2023-05-12T15:30:32.944Z,5.60
2023-05-12T15:33:01.693Z,5.15
2023-05-12T15:35:28.670Z,20.08
2023-05-12T15:37:56.948Z,7.53
2023-05-12T15:40:24.030Z,16.30
2023-05-12T15:42:51.360Z,3.35
2023-05-12T15:45:19.039Z,7.65
2023-05-12T15:47:46.222Z,6.03
2023-05-12T15:50:16.287Z,5.88
2023-05-12T15:52:43.217Z,4.05
2023-05-12T15:55:11.639Z,3.00
2023-05-12T15:57:38.553Z,3.08
2023-05-12T16:00:07.076Z,6.90
2023-05-12T16:02:40.283Z,7.80
2023-05-12T16:05:08.396Z,4.07
2023-05-12T16:07:35.887Z,3.22
2023-05-12T16:10:03.805Z,5.28
2023-05-12T16:12:32.253Z,6.50
2023-05-12T16:14:59.528Z,8.82
2023-05-12T16:17:27.772Z,3.53
2023-05-12T16:19:56.894Z,2.22
2023-05-12T16:22:23.987Z,3.00
2023-05-12T16:24:51.014Z,6.50
2023-05-12T16:27:17.944Z,4.50
2023-05-12T16:29:48.105Z,7.97
2023-05-12T16:32:15.476Z,5.03
2023-05-12T16:34:43.027Z,10.80
2023-05-12T16:37:09.950Z,4.38
2023-05-12T16:39:36.958Z,9.35
2023-05-12T16:42:04.466Z,9.27
2023-05-12T16:44:31.443Z,4.70
2023-05-12T16:46:59.808Z,5.78
2023-05-12T16:49:26.764Z,8.60
2023-05-12T16:51:53.675Z,6.80
2023-05-12T16:54:20.688Z,6.43
2023-05-12T16:56:48.418Z,8.18
2023-05-12T16:59:15.554Z,6.22
2023-05-12T17:01:42.812Z,3.65
2023-05-12T17:04:12.459Z,7.80
2023-05-12T17:06:39.572Z,2.92
2023-05-12T17:09:06.559Z,5.53
2023-05-12T17:11:34.272Z,5.35
2023-05-12T17:14:01.228Z,6.50
2023-05-12T17:16:28.698Z,2.17
2023-05-12T17:21:28.298Z,5.47
2023-05-12T17:23:55.246Z,3.55
2023-05-12T17:26:22.572Z,2.50
2023-05-12T17:28:49.656Z,4.53
2023-05-12T17:31:16.783Z,6.53
2023-05-12T17:33:43.802Z,2.85
2023-05-12T17:36:13.389Z,6.32
2023-05-12T17:38:41.918Z,18.08
2023-05-12T17:41:08.898Z,6.82
2023-05-12T17:43:36.190Z,4.78
2023-05-12T17:46:04.778Z,4.97
2023-05-12T17:48:33.338Z,2.35
2023-05-12T17:51:00.994Z,2.75
2023-05-12T17:53:27.976Z,5.18
2023-05-12T17:55:56.332Z,5.97
2023-05-12T17:58:23.528Z,1.85
2023-05-12T18:00:51.269Z,2.17
2023-05-12T18:03:23.311Z,3.38
2023-05-12T18:05:54.129Z,7.43
2023-05-12T18:08:21.764Z,4.13
2023-05-12T18:10:49.063Z,3.17
2023-05-12T18:13:17.393Z,2.47
2023-05-12T18:15:44.426Z,2.28
2023-05-12T18:18:12.384Z,2.15
2023-05-12T18:20:39.409Z,2.75
2023-05-12T18:23:06.935Z,3.00
2023-05-12T18:25:34.307Z,6.82
2023-05-12T18:28:01.580Z,4.75
2023-05-12T18:30:30.072Z,4.18
2023-05-12T18:32:57.097Z,3.88
2023-05-12T18:35:25.005Z,2.95
2023-05-12T18:37:52.002Z,5.18
2023-05-12T18:40:18.903Z,3.90
2023-05-12T18:42:46.320Z,6.25
2023-05-12T18:45:13.244Z,4.68
2023-05-12T18:47:41.836Z,3.72
2023-05-12T18:50:09.898Z,2.63
2023-05-12T18:52:37.260Z,7.13
2023-05-12T18:55:05.333Z,2.30
2023-05-12T18:57:32.298Z,3.17
2023-05-12T18:59:59.260Z,3.97
2023-05-12T19:02:26.324Z,3.97
2023-05-12T19:04:55.092Z,3.70
2023-05-12T19:07:22.052Z,6.55
2023-05-12T19:09:48.996Z,7.18
2023-05-12T19:12:16.134Z,7.20
2023-05-12T19:14:44.512Z,18.35
2023-05-12T19:17:11.682Z,12.35
2023-05-12T19:19:38.624Z,7.68
2023-05-12T19:22:07.024Z,20.95
2023-05-12T19:24:34.922Z,7.97
2023-05-12T19:27:02.099Z,4.80
2023-05-12T19:29:29.052Z,5.72
2023-05-12T19:31:56.263Z,4.00
2023-05-12T19:34:23.972Z,8.95
2023-05-12T19:36:52.149Z,6.70
2023-05-12T19:39:20.505Z,5.30
2023-05-12T19:41:47.673Z,8.63
2023-05-12T19:44:14.652Z,9.55
2023-05-12T19:46:41.602Z,4.72
2023-05-12T19:49:08.646Z,6.18
2023-05-12T19:51:35.621Z,5.22
2023-05-12T19:54:04.833Z,4.93
2023-05-12T19:56:33.344Z,4.60
2023-05-12T19:59:00.715Z,2.40
2023-05-12T20:01:27.774Z,3.10
2023-05-12T20:03:54.779Z,2.78
2023-05-12T20:06:22.518Z,3.78
2023-05-12T20:08:49.549Z,2.10
2023-05-12T20:11:16.532Z,6.75
2023-05-12T20:13:44.841Z,5.20
2023-05-12T20:16:11.801Z,5.50
2023-05-12T20:18:39.016Z,4.47
2023-05-12T20:21:06.001Z,2.53
2023-05-12T20:23:33.469Z,8.15
2023-05-12T20:26:00.383Z,10.90
2023-05-12T20:28:28.318Z,5.63
2023-05-12T20:30:56.749Z,5.57
2023-05-12T20:33:23.795Z,6.00
2023-05-12T20:35:50.946Z,9.27
2023-05-12T20:38:18.012Z,8.85
2023-05-12T20:40:47.903Z,6.15
2023-05-12T20:43:15.316Z,6.65
2023-05-12T20:45:42.580Z,5.55
2023-05-12T20:48:11.052Z,5.47
2023-05-12T20:50:38.053Z,7.30
2023-05-12T20:53:05.397Z,10.60
2023-05-12T20:55:32.957Z,8.77
2023-05-12T20:57:59.938Z,4.22
2023-05-12T21:00:27.034Z,7.10
2023-05-12T21:02:54.680Z,8.18
2023-05-12T21:05:23.312Z,9.13
2023-05-12T21:07:50.357Z,11.55
2023-05-12T21:10:18.040Z,10.90
2023-05-12T21:12:45.095Z,6.63
2023-05-12T21:15:12.195Z,12.48
2023-05-12T21:17:39.976Z,13.23
2023-05-12T21:20:08.724Z,9.68
2023-05-12T21:22:38.434Z,8.85
2023-05-12T21:25:06.134Z,7.60
2023-05-12T21:27:33.070Z,5.65
2023-05-12T21:30:00.890Z,7.82
2023-05-12T21:32:28.001Z,4.57
2023-05-12T21:34:55.006Z,3.88
2023-05-12T21:37:21.960Z,9.27
2023-05-12T21:39:50.413Z,7.95
2023-05-12T21:42:17.403Z,5.88
2023-05-12T21:44:44.354Z,5.53
2023-05-12T21:47:11.253Z,6.65
2023-05-12T21:49:38.311Z,7.30
2023-05-12T21:52:05.720Z,5.45
2023-05-12T21:54:35.745Z,5.63
2023-05-12T21:57:04.292Z,4.25
2023-05-12T21:59:31.295Z,6.65
2023-05-12T22:01:58.492Z,5.88
2023-05-12T22:04:25.515Z,5.22
2023-05-12T22:06:52.490Z,11.50
2023-05-12T22:09:20.450Z,4.35
2023-05-12T22:11:47.446Z,9.90
2023-05-12T22:14:16.106Z,7.82
2023-05-12T22:16:43.182Z,7.30
2023-05-12T22:19:10.263Z,5.57
2023-05-12T22:21:37.382Z,7.35
2023-05-12T22:24:04.916Z,6.80
2023-05-12T22:26:31.860Z,1.70
2023-05-12T22:28:58.833Z,8.82
2023-05-12T22:31:27.560Z,3.30
2023-05-12T22:33:54.701Z,6.90
2023-05-12T22:36:21.595Z,6.00
2023-05-12T22:38:48.506Z,3.08
2023-05-12T22:41:15.452Z,4.28
2023-05-12T22:43:42.377Z,5.85
2023-05-12T22:46:09.710Z,3.60
2023-05-12T22:48:39.425Z,8.88
2023-05-12T22:51:06.820Z,7.55
2023-05-12T22:53:35.809Z,6.32
2023-05-12T22:56:03.082Z,5.85
2023-05-12T22:58:30.070Z,3.50
2023-05-12T23:00:57.162Z,4.75
2023-05-12T23:03:24.706Z,5.93
2023-05-12T23:05:53.140Z,4.65
2023-05-12T23:08:20.345Z,4.50
2023-05-12T23:10:47.252Z,6.45
2023-05-12T23:13:14.268Z,4.72
2023-05-12T23:15:41.618Z,6.88
2023-05-12T23:18:08.723Z,4.82
2023-05-12T23:20:36.088Z,4.47
2023-05-12T23:23:04.472Z,4.80
2023-05-12T23:25:31.800Z,8.63
2023-05-12T23:27:58.827Z,4.70
2023-05-12T23:30:26.124Z,4.30
2023-05-12T23:32:53.172Z,8.65
2023-05-12T23:35:20.140Z,4.72
2023-05-12T23:37:47.088Z,3.33
2023-05-12T23:40:15.586Z,5.90
2023-05-12T23:42:42.607Z,6.43
2023-05-12T23:45:10.514Z,8.40
2023-05-12T23:47:37.863Z,5.40
2023-05-12T23:50:05.836Z,6.03
2023-05-12T23:52:32.883Z,7.15
2023-05-12T23:55:00.320Z,3.63
2023-05-12T23:57:28.862Z,3.75
2023-05-12T23:59:55.947Z,3.38
